Time;durP1;ratioP1;P1;durP2;ratioP2;P2;SDS_P1;SDS_P2;PMS_P1;PMS_P2;Temp;Humidity;BMP_temperature;BMP_pressure;BME280_temperature;BME280_humidity;BME280_pressure;Samples;Min_cycle;Max_cycle;Signal;HPM_P1;HPM_P2
2023/05/19 00:01:15;;;;;;;2.57;1.47;;;7.70;99.90;;;;;;4986429;28;20211;-86
2023/05/19 00:03:53;;;;;;;3.53;1.67;;;7.70;99.90;;;;;;5003039;28;20782;-87
2023/05/19 00:06:26;;;;;;;3.13;1.23;;;7.70;99.90;;;;;;5003311;28;20550;-87
2023/05/19 00:08:59;;;;;;;1.93;1.73;;;7.70;99.90;;;;;;5001390;28;20240;-87
2023/05/19 00:11:26;;;;;;;1.90;1.33;;;7.60;99.90;;;;;;4985714;28;20333;-88
2023/05/19 00:13:57;;;;;;;2.17;1.30;;;7.70;99.90;;;;;;5002519;28;20223;-86
2023/05/19 00:16:24;;;;;;;1.67;1.57;;;7.70;99.90;;;;;;4986521;28;21174;-89
2023/05/19 00:18:52;;;;;;;1.80;1.70;;;7.80;99.90;;;;;;4985916;28;20546;-87
2023/05/19 00:21:18;;;;;;;1.43;1.33;;;7.80;99.90;;;;;;4986923;28;20180;-87
2023/05/19 00:23:44;;;;;;;8.13;2.47;;;7.80;99.90;;;;;;5002269;28;20299;-88
2023/05/19 00:26:10;;;;;;;1.57;1.30;;;7.80;99.90;;;;;;4959610;28;20307;-87
2023/05/19 00:28:36;;;;;;;6.03;2.47;;;7.80;99.90;;;;;;5002893;28;20673;-87
2023/05/19 00:31:04;;;;;;;4.17;2.30;;;7.80;99.90;;;;;;4985980;28;20232;-88
2023/05/19 00:33:30;;;;;;;1.73;1.60;;;7.90;99.90;;;;;;4994937;28;20719;-87
2023/05/19 00:35:55;;;;;;;3.63;1.20;;;7.90;99.90;;;;;;4994239;28;20312;-87
2023/05/19 00:38:21;;;;;;;1.30;1.20;;;7.90;99.90;;;;;;4989093;28;20226;-89
2023/05/19 00:40:47;;;;;;;4.57;1.67;;;7.80;99.90;;;;;;4990837;28;20216;-86
2023/05/19 00:43:13;;;;;;;2.50;1.50;;;7.80;99.90;;;;;;4966151;28;20227;-87
2023/05/19 00:45:39;;;;;;;2.77;1.37;;;7.90;99.90;;;;;;4990357;28;20267;-89
2023/05/19 00:48:05;;;;;;;3.77;1.63;;;8.00;99.90;;;;;;4990507;28;20223;-87
2023/05/19 00:50:33;;;;;;;2.00;1.50;;;8.00;99.90;;;;;;4974044;28;20223;-88
2023/05/19 00:52:59;;;;;;;1.10;1.07;;;8.00;99.90;;;;;;4990578;28;20227;-87
2023/05/19 00:55:30;;;;;;;1.00;0.67;;;8.10;99.90;;;;;;4989597;28;20279;-87
2023/05/19 00:57:56;;;;;;;1.00;0.87;;;8.10;99.90;;;;;;5006528;28;20226;-87
2023/05/19 01:00:22;;;;;;;1.30;0.90;;;8.20;99.90;;;;;;4991138;28;20544;-87
2023/05/19 01:02:52;;;;;;;5.03;1.27;;;8.10;99.90;;;;;;4989549;28;20216;-90
2023/05/19 01:05:18;;;;;;;2.40;1.10;;;8.20;99.90;;;;;;4990045;28;20912;-88
2023/05/19 01:07:45;;;;;;;7.73;1.90;;;8.10;99.90;;;;;;5005731;28;20271;-87
2023/05/19 01:10:12;;;;;;;1.63;1.40;;;8.10;99.90;;;;;;4989436;28;20227;-88
2023/05/19 01:12:39;;;;;;;6.93;1.30;;;8.10;99.90;;;;;;4989864;28;20188;-87
2023/05/19 01:15:05;;;;;;;3.70;0.70;;;8.10;99.90;;;;;;4990165;28;20239;-87
2023/05/19 01:17:41;;;;;;;1.00;0.90;;;8.10;99.90;;;;;;4972878;28;20290;-89
2023/05/19 01:20:20;;;;;;;0.80;0.77;;;8.10;99.90;;;;;;5005634;28;20321;-87
2023/05/19 01:23:17;;;;;;;1.10;0.87;;;8.10;99.90;;;;;;5005974;28;20219;-88
2023/05/19 02:06:54;;;;;;;1.00;1.00;;;7.90;99.90;;;;;;4982843;23;20252;-91
2023/05/19 02:09:28;;;;;;;3.10;2.13;;;8.00;99.90;;;;;;4927980;28;20343;-89
2023/05/19 02:12:13;;;;;;;3.20;1.30;;;8.00;99.90;;;;;;4980047;28;20304;-91
2023/05/19 02:14:42;;;;;;;0.70;0.70;;;7.90;99.90;;;;;;4951122;28;20212;-91
2023/05/19 02:17:11;;;;;;;0.83;0.83;;;7.90;99.90;;;;;;4977425;28;20216;-90
2023/05/19 02:19:41;;;;;;;1.67;1.17;;;7.90;99.90;;;;;;4964226;28;20220;-90
2023/05/19 02:22:06;;;;;;;1.13;1.13;;;7.90;99.90;;;;;;4960610;28;20216;-90
2023/05/19 02:24:32;;;;;;;2.03;1.87;;;7.90;99.90;;;;;;4946276;28;20207;-91
2023/05/19 02:26:59;;;;;;;1.33;0.77;;;7.90;99.90;;;;;;4969638;28;20279;-90
2023/05/19 02:29:25;;;;;;;0.63;0.63;;;7.90;99.90;;;;;;4968044;28;20220;-91
2023/05/19 02:31:51;;;;;;;3.97;1.17;;;8.00;99.90;;;;;;4984020;28;20227;-91
2023/05/19 02:34:16;;;;;;;1.20;0.80;;;8.00;99.90;;;;;;4932473;28;20212;-89
2023/05/19 02:36:42;;;;;;;1.93;1.13;;;8.00;99.90;;;;;;4949587;28;20201;-91
2023/05/19 02:39:12;;;;;;;6.17;1.67;;;8.10;99.90;;;;;;4930906;28;20279;-90
2023/05/19 02:41:38;;;;;;;0.93;0.93;;;8.10;99.90;;;;;;4944591;28;20227;-89
2023/05/19 02:44:03;;;;;;;1.37;1.27;;;8.10;99.90;;;;;;4948042;28;20216;-91
2023/05/19 02:46:29;;;;;;;2.27;1.33;;;8.10;99.90;;;;;;4930627;28;20221;-91
2023/05/19 02:48:55;;;;;;;5.40;1.80;;;8.10;99.90;;;;;;4931684;28;20219;-90
2023/05/19 02:51:21;;;;;;;10.40;1.43;;;8.10;99.90;;;;;;4963354;28;20241;-92
2023/05/19 02:53:47;;;;;;;0.67;0.67;;;8.10;99.90;;;;;;4979472;28;20227;-89
2023/05/19 02:56:12;;;;;;;0.87;0.77;;;8.20;99.90;;;;;;4961281;28;20228;-91
2023/05/19 02:58:38;;;;;;;1.43;1.33;;;8.20;99.90;;;;;;4930300;28;20227;-89
2023/05/19 03:01:04;;;;;;;1.27;1.17;;;8.20;99.90;;;;;;4945022;28;20582;-90
2023/05/19 03:03:30;;;;;;;2.67;2.07;;;8.20;99.90;;;;;;4948032;28;20191;-89
2023/05/19 03:05:56;;;;;;;2.33;1.27;;;8.10;99.90;;;;;;4963081;28;20828;-89
2023/05/19 03:08:22;;;;;;;0.97;0.97;;;8.00;99.90;;;;;;4930763;28;20223;-91
2023/05/19 03:10:47;;;;;;;3.60;1.00;;;8.00;99.90;;;;;;4930461;28;20319;-92
2023/05/19 03:13:13;;;;;;;3.10;1.47;;;8.10;99.90;;;;;;4930842;28;20212;-90
2023/05/19 03:15:41;;;;;;;1.10;0.90;;;8.20;99.90;;;;;;4945125;28;20184;-91
2023/05/19 03:18:07;;;;;;;2.03;1.27;;;8.20;99.90;;;;;;4930907;28;20193;-91
2023/05/19 03:20:32;;;;;;;2.10;1.90;;;8.20;99.90;;;;;;4931055;28;20215;-89
2023/05/19 03:22:59;;;;;;;4.70;2.07;;;8.30;99.90;;;;;;4962307;28;20255;-89
2023/05/19 03:25:24;;;;;;;5.10;1.90;;;8.20;99.90;;;;;;4930422;28;20240;-91
2023/05/19 03:27:50;;;;;;;6.73;2.30;;;8.10;99.90;;;;;;4930762;28;20227;-91
2023/05/19 03:30:16;;;;;;;1.13;1.03;;;8.20;99.90;;;;;;4946888;28;20239;-92
2023/05/19 03:32:42;;;;;;;1.40;1.27;;;8.20;99.90;;;;;;4930524;28;20267;-93
2023/05/19 03:35:08;;;;;;;2.20;1.60;;;8.20;99.90;;;;;;4945653;28;20208;-90
2023/05/19 03:37:34;;;;;;;3.07;1.47;;;8.30;99.90;;;;;;4945126;28;20761;-92
2023/05/19 03:40:00;;;;;;;7.93;0.70;;;8.20;99.90;;;;;;4945046;28;20287;-91
2023/05/19 03:42:25;;;;;;;2.30;1.27;;;7.90;99.90;;;;;;4932128;28;20331;-91
2023/05/19 03:44:51;;;;;;;2.47;0.63;;;7.70;99.90;;;;;;4930165;28;20211;-91
2023/05/19 03:47:17;;;;;;;1.70;1.00;;;7.70;99.90;;;;;;4961640;28;20223;-91
2023/05/19 03:49:42;;;;;;;2.13;1.43;;;7.80;99.90;;;;;;4938882;28;20269;-90
2023/05/19 03:52:09;;;;;;;0.87;0.73;;;7.90;99.90;;;;;;4948286;28;20212;-91
2023/05/19 03:54:37;;;;;;;2.07;1.93;;;7.90;99.90;;;;;;4963370;28;20179;-92
2023/05/19 03:57:03;;;;;;;4.83;1.77;;;7.80;99.90;;;;;;4995815;28;20243;-89
2023/05/19 03:59:30;;;;;;;0.97;0.87;;;7.80;99.90;;;;;;4964420;28;20654;-90
2023/05/19 04:01:56;;;;;;;0.70;0.70;;;7.80;99.90;;;;;;4963687;28;20588;-90
2023/05/19 04:04:22;;;;;;;1.40;1.27;;;7.80;99.90;;;;;;4964022;28;20220;-90
2023/05/19 04:06:48;;;;;;;1.47;1.37;;;8.00;99.90;;;;;;4963438;28;20237;-90
2023/05/19 04:09:14;;;;;;;0.80;0.80;;;8.20;99.90;;;;;;4981192;28;20279;-92
2023/05/19 04:11:41;;;;;;;1.80;0.70;;;8.30;99.90;;;;;;4995397;28;20227;-91
2023/05/19 04:14:07;;;;;;;2.10;1.27;;;8.20;99.90;;;;;;4979174;28;20219;-91
2023/05/19 04:16:33;;;;;;;1.30;1.13;;;8.10;99.90;;;;;;4963384;28;20224;-91
2023/05/19 04:18:59;;;;;;;2.53;1.57;;;7.80;99.90;;;;;;4963285;28;21166;-90
2023/05/19 04:21:26;;;;;;;1.67;1.30;;;7.90;99.90;;;;;;4978999;28;20184;-90
2023/05/19 04:23:52;;;;;;;2.43;1.53;;;7.90;99.90;;;;;;4965235;28;20219;-90
2023/05/19 04:26:20;;;;;;;4.37;1.10;;;8.10;99.90;;;;;;4978935;28;20212;-90
2023/05/19 04:28:47;;;;;;;2.97;0.87;;;8.30;99.90;;;;;;4948724;28;20239;-91
2023/05/19 04:31:15;;;;;;;1.00;1.00;;;8.50;99.90;;;;;;4962437;28;20231;-92
2023/05/19 04:33:41;;;;;;;1.77;1.67;;;8.50;99.90;;;;;;4978910;28;20686;-91
2023/05/19 04:36:09;;;;;;;3.83;1.60;;;8.50;99.90;;;;;;4950081;28;20216;-90
2023/05/19 04:38:38;;;;;;;2.57;2.37;;;8.60;99.90;;;;;;4979191;28;20627;-91
2023/05/19 04:41:08;;;;;;;2.40;2.10;;;8.80;99.90;;;;;;4978870;28;20231;-91
2023/05/19 04:43:35;;;;;;;1.23;1.13;;;9.00;99.90;;;;;;4964578;28;20262;-91
2023/05/19 04:46:04;;;;;;;1.33;1.23;;;9.20;99.90;;;;;;4970332;28;20243;-91
2023/05/19 04:48:32;;;;;;;2.00;1.47;;;9.30;99.90;;;;;;4957304;28;20195;-92
2023/05/19 04:51:00;;;;;;;1.30;1.23;;;9.40;99.90;;;;;;4963854;28;20262;-91
2023/05/19 04:53:28;;;;;;;2.40;2.20;;;9.50;99.90;;;;;;4949133;28;20230;-90
2023/05/19 04:55:54;;;;;;;7.33;2.07;;;9.60;99.90;;;;;;4980097;28;20225;-91
2023/05/19 04:58:19;;;;;;;1.17;0.90;;;9.70;99.90;;;;;;4947165;28;20646;-90
2023/05/19 05:00:45;;;;;;;2.83;1.20;;;9.80;99.90;;;;;;4996444;28;20274;-91
2023/05/19 05:03:13;;;;;;;2.03;1.77;;;9.80;99.90;;;;;;4964505;28;20215;-91
2023/05/19 05:05:39;;;;;;;3.27;1.43;;;9.90;99.90;;;;;;4977005;28;20660;-91
2023/05/19 05:08:05;;;;;;;10.30;1.33;;;9.90;99.90;;;;;;4979859;28;20246;-91
2023/05/19 05:10:31;;;;;;;1.77;1.50;;;9.90;99.90;;;;;;4963638;28;20282;-91
2023/05/19 05:12:57;;;;;;;2.67;2.47;;;10.00;99.90;;;;;;4979012;28;20223;-91
2023/05/19 05:15:23;;;;;;;1.83;1.73;;;10.20;99.90;;;;;;4946916;28;20188;-91
2023/05/19 05:17:50;;;;;;;16.23;2.30;;;11.10;99.90;;;;;;4962498;28;20215;-90
2023/05/19 05:20:16;;;;;;;2.87;1.80;;;12.90;99.90;;;;;;4977378;28;20274;-92
2023/05/19 05:22:42;;;;;;;4.63;3.30;;;14.20;99.90;;;;;;4964830;28;20276;-92
2023/05/19 05:25:08;;;;;;;6.13;1.97;;;16.20;99.90;;;;;;4966153;28;20212;-91
2023/05/19 05:27:35;;;;;;;1.70;1.60;;;17.20;99.90;;;;;;4951817;28;20214;-93
2023/05/19 05:30:01;;;;;;;10.67;4.53;;;18.20;99.90;;;;;;4983354;28;20329;-92
2023/05/19 05:32:27;;;;;;;10.07;3.63;;;18.00;99.90;;;;;;5000702;28;20296;-93
2023/05/19 05:34:53;;;;;;;5.63;3.07;;;18.70;99.90;;;;;;4985940;28;20311;-93
2023/05/19 05:37:19;;;;;;;5.00;2.47;;;18.90;99.90;;;;;;4984225;28;20270;-93
2023/05/19 05:39:45;;;;;;;2.23;1.53;;;19.70;99.90;;;;;;4968517;28;20192;-93
2023/05/19 05:42:11;;;;;;;4.43;1.30;;;19.40;99.90;;;;;;4981618;28;20183;-91
2023/05/19 05:44:36;;;;;;;3.57;1.73;;;20.30;99.90;;;;;;4983560;28;20242;-92
2023/05/19 05:47:03;;;;;;;3.10;1.10;;;21.00;99.90;;;;;;4981384;28;20640;-92
2023/05/19 05:49:29;;;;;;;3.93;1.50;;;20.70;99.90;;;;;;4989914;28;20255;-92
2023/05/19 05:51:55;;;;;;;1.40;1.30;;;21.30;99.90;;;;;;4951985;28;20226;-93
2023/05/19 05:54:22;;;;;;;5.00;1.63;;;22.10;99.90;;;;;;4984818;28;20184;-91
2023/05/19 05:56:48;;;;;;;4.10;1.40;;;22.80;99.90;;;;;;4966061;28;20675;-91
2023/05/19 05:59:17;;;;;;;3.10;1.73;;;23.00;99.90;;;;;;4967517;28;20200;-92
2023/05/19 06:01:42;;;;;;;3.07;2.50;;;23.10;99.90;;;;;;4951351;28;20228;-92
2023/05/19 06:04:09;;;;;;;3.50;1.43;;;22.60;99.90;;;;;;4966025;28;20215;-90
2023/05/19 06:06:37;;;;;;;5.27;2.23;;;21.80;99.90;;;;;;4949242;28;20239;-93
2023/05/19 06:09:04;;;;;;;4.10;1.73;;;21.60;99.90;;;;;;4962972;28;20185;-92
2023/05/19 06:11:30;;;;;;;2.53;1.83;;;22.00;99.90;;;;;;4979342;28;20647;-93
2023/05/19 06:13:56;;;;;;;3.10;1.80;;;21.80;99.90;;;;;;4979845;28;20290;-93
2023/05/19 06:16:21;;;;;;;7.83;2.30;;;21.90;99.90;;;;;;4978054;28;20212;-94
2023/05/19 06:18:47;;;;;;;6.13;1.83;;;21.40;99.90;;;;;;4979682;28;20208;-90
2023/05/19 06:21:13;;;;;;;5.07;1.97;;;21.70;99.90;;;;;;4979673;28;20196;-90
2023/05/19 06:23:40;;;;;;;2.87;2.07;;;21.40;99.90;;;;;;4963255;28;20457;-91
2023/05/19 06:26:06;;;;;;;5.50;3.00;;;21.20;99.90;;;;;;4962573;28;20241;-90
2023/05/19 06:28:33;;;;;;;10.90;2.17;;;20.60;99.90;;;;;;4977508;28;20249;-90
2023/05/19 06:30:58;;;;;;;3.13;1.70;;;20.00;99.90;;;;;;4993074;28;20229;-90
2023/05/19 06:33:25;;;;;;;4.47;2.10;;;20.60;99.90;;;;;;4977294;28;20657;-91
2023/05/19 06:35:53;;;;;;;6.80;2.80;;;21.00;99.90;;;;;;4979720;28;20244;-91
2023/05/19 06:38:19;;;;;;;2.90;1.70;;;21.50;99.90;;;;;;4994533;28;20221;-90
2023/05/19 06:40:45;;;;;;;3.17;1.47;;;21.60;99.90;;;;;;4956556;28;20751;-93
2023/05/19 06:43:11;;;;;;;3.13;2.10;;;21.70;99.90;;;;;;4978949;28;20228;-90
2023/05/19 06:45:37;;;;;;;2.27;1.87;;;21.50;99.90;;;;;;4977818;28;20323;-91
2023/05/19 06:48:03;;;;;;;6.50;1.77;;;21.00;99.90;;;;;;4961912;28;20287;-91
2023/05/19 06:50:31;;;;;;;3.17;1.63;;;21.80;99.90;;;;;;4978397;28;20224;-90
2023/05/19 06:52:57;;;;;;;4.17;2.07;;;21.90;99.90;;;;;;4977711;28;20683;-90
2023/05/19 06:55:23;;;;;;;5.13;2.30;;;22.70;99.90;;;;;;4946479;28;20295;-87
2023/05/19 06:57:48;;;;;;;4.55;2.15;;;22.40;99.90;;;;;;4962532;28;20192;-89
2023/05/19 07:00:15;;;;;;;6.13;2.25;;;21.90;99.90;;;;;;4961826;28;20187;-89
2023/05/19 07:02:41;;;;;;;5.32;2.20;;;21.50;99.90;;;;;;4993332;28;20215;-89
2023/05/19 07:05:08;;;;;;;4.15;2.20;;;21.90;99.90;;;;;;4961705;28;20274;-89
2023/05/19 07:07:33;;;;;;;2.70;2.00;;;21.90;99.90;;;;;;4962831;28;21222;-89
2023/05/19 07:09:59;;;;;;;3.67;1.80;;;21.20;99.90;;;;;;4961331;28;20228;-88
2023/05/19 07:12:25;;;;;;;3.20;2.05;;;21.40;99.90;;;;;;4962376;28;20281;-89
2023/05/19 07:14:52;;;;;;;2.65;1.88;;;20.50;99.90;;;;;;4947124;28;20271;-89
2023/05/19 07:17:17;;;;;;;3.05;2.20;;;20.70;99.90;;;;;;4978236;28;20213;-90
2023/05/19 07:19:43;;;;;;;3.08;1.98;;;20.90;99.90;;;;;;4977034;28;20226;-87
2023/05/19 07:22:09;;;;;;;5.22;2.42;;;20.40;99.90;;;;;;4978408;28;20314;-89
2023/05/19 07:24:35;;;;;;;3.83;1.85;;;20.50;99.90;;;;;;4977011;28;20197;-87
2023/05/19 07:27:00;;;;;;;2.15;2.05;;;21.20;99.90;;;;;;4992167;28;20647;-89
2023/05/19 07:29:26;;;;;;;5.60;2.40;;;21.30;99.90;;;;;;4964435;28;20404;-88
2023/05/19 07:31:56;;;;;;;2.88;2.00;;;21.20;99.90;;;;;;4979960;28;20259;-89
2023/05/19 07:34:23;;;;;;;4.35;1.90;;;21.80;99.90;;;;;;4963069;28;20232;-88
2023/05/19 07:36:50;;;;;;;7.07;2.17;;;21.80;99.90;;;;;;4979783;28;20196;-90
2023/05/19 07:39:16;;;;;;;7.35;2.55;;;21.00;99.90;;;;;;4983424;28;20172;-90
2023/05/19 07:41:42;;;;;;;4.75;2.80;;;20.20;99.90;;;;;;4997424;28;20224;-90
2023/05/19 07:44:09;;;;;;;3.60;1.85;;;20.80;99.90;;;;;;4965740;28;20614;-90
2023/05/19 07:46:36;;;;;;;4.10;2.58;;;20.40;99.90;;;;;;4980557;28;20251;-90
2023/05/19 07:49:02;;;;;;;2.60;1.90;;;19.90;99.90;;;;;;4982617;28;20803;-90
2023/05/19 07:51:28;;;;;;;6.20;2.22;;;20.00;99.90;;;;;;4977432;28;20235;-88
2023/05/19 07:53:54;;;;;;;3.33;1.90;;;20.40;99.90;;;;;;4973951;28;20248;-88
2023/05/19 07:56:23;;;;;;;1.48;1.33;;;20.10;99.90;;;;;;4973143;28;20232;-88
2023/05/19 07:58:49;;;;;;;2.33;1.90;;;20.00;99.90;;;;;;4959890;28;20230;-88
2023/05/19 08:01:15;;;;;;;5.35;2.70;;;19.80;99.90;;;;;;4937977;28;20753;-89
2023/05/19 08:03:41;;;;;;;1.98;1.85;;;20.20;99.90;;;;;;4942934;28;20188;-89
2023/05/19 08:06:07;;;;;;;2.70;2.10;;;20.40;99.90;;;;;;4935292;28;20228;-90
2023/05/19 08:08:32;;;;;;;9.13;3.08;;;19.90;99.90;;;;;;4942562;28;20335;-89
2023/05/19 08:11:03;;;;;;;3.50;2.33;;;19.90;99.90;;;;;;4971140;28;20236;-89
2023/05/19 08:13:29;;;;;;;4.72;2.00;;;20.40;99.90;;;;;;4974886;28;20355;-89
2023/05/19 08:15:58;;;;;;;3.15;2.38;;;20.80;99.90;;;;;;4967087;28;20270;-89
2023/05/19 08:18:27;;;;;;;2.17;1.98;;;21.10;99.90;;;;;;4973985;28;20239;-89
2023/05/19 08:20:53;;;;;;;6.85;2.38;;;20.90;99.90;;;;;;4988605;28;20554;-89
2023/05/19 08:23:19;;;;;;;4.80;2.35;;;21.70;99.90;;;;;;4958895;28;20218;-89
2023/05/19 08:25:44;;;;;;;2.72;1.70;;;21.90;99.90;;;;;;4951147;28;20242;-88
2023/05/19 08:28:10;;;;;;;5.57;2.10;;;21.40;99.90;;;;;;4973883;28;20228;-89
2023/05/19 08:30:36;;;;;;;3.78;2.25;;;20.70;99.90;;;;;;4942427;28;20300;-89
2023/05/19 08:33:02;;;;;;;3.70;2.83;;;19.40;99.90;;;;;;4962019;28;20200;-90
2023/05/19 08:35:28;;;;;;;5.00;2.27;;;18.80;99.90;;;;;;4980949;28;20217;-89
2023/05/19 08:37:54;;;;;;;5.67;2.40;;;18.90;99.90;;;;;;4948960;28;20207;-89
2023/05/19 08:40:19;;;;;;;4.10;1.70;;;19.40;99.90;;;;;;4979964;28;20262;-89
2023/05/19 08:42:45;;;;;;;2.57;1.70;;;19.00;99.90;;;;;;4983008;28;20196;-89
2023/05/19 08:45:12;;;;;;;2.90;2.00;;;19.00;99.90;;;;;;4997218;28;20215;-89
2023/05/19 08:47:45;;;;;;;2.10;1.90;;;18.50;99.90;;;;;;4978362;28;20215;-87
2023/05/19 08:50:12;;;;;;;1.60;1.50;;;18.20;99.90;;;;;;4979323;28;20216;-88
2023/05/19 08:53:06;;;;;;;2.93;2.00;;;18.70;99.90;;;;;;4957833;28;20208;-88
2023/05/19 08:55:52;;;;;;;2.80;2.50;;;18.90;99.90;;;;;;4960406;28;20220;-88
2023/05/19 08:58:21;;;;;;;4.73;1.67;;;19.20;99.90;;;;;;4964693;28;20696;-91
2023/05/19 09:00:48;;;;;;;4.70;2.17;;;18.90;99.90;;;;;;4934604;28;20518;-89
2023/05/19 09:03:16;;;;;;;2.37;1.80;;;19.00;99.90;;;;;;4973126;28;20196;-91
2023/05/19 09:05:42;;;;;;;2.40;2.00;;;19.10;99.90;;;;;;4975642;28;20224;-88
2023/05/19 09:08:08;;;;;;;2.30;1.93;;;19.20;99.90;;;;;;4984900;28;20255;-88
2023/05/19 09:10:34;;;;;;;2.93;1.80;;;19.60;99.90;;;;;;4971304;28;20232;-89
2023/05/19 09:13:00;;;;;;;5.83;2.30;;;19.70;99.90;;;;;;4960433;28;20219;-86
2023/05/19 09:15:27;;;;;;;3.77;1.93;;;19.80;99.90;;;;;;4967586;28;20625;-87
2023/05/19 09:18:23;;;;;;;4.10;1.80;;;19.70;99.90;;;;;;4972893;28;20234;-87
2023/05/19 09:20:49;;;;;;;6.50;2.97;;;19.60;99.90;;;;;;4942826;28;20617;-87
2023/05/19 09:23:16;;;;;;;6.27;2.63;;;19.70;99.90;;;;;;4944395;28;20247;-87
2023/05/19 09:25:50;;;;;;;3.97;2.17;;;20.40;99.90;;;;;;4943449;28;20216;-87
2023/05/19 09:28:36;;;;;;;4.57;1.87;;;21.50;99.90;;;;;;4972112;28;20220;-87
2023/05/19 09:31:04;;;;;;;2.43;1.90;;;21.50;99.90;;;;;;4972482;28;20234;-88
2023/05/19 09:33:33;;;;;;;7.13;2.10;;;20.70;99.90;;;;;;4954852;28;20192;-87
2023/05/19 09:35:59;;;;;;;3.50;1.60;;;19.20;99.90;;;;;;4972055;28;20220;-88
2023/05/19 09:38:26;;;;;;;2.67;1.50;;;19.60;99.90;;;;;;4972616;28;20578;-88
2023/05/19 09:40:56;;;;;;;2.53;1.97;;;19.40;99.90;;;;;;4972979;28;21258;-87
2023/05/19 09:43:22;;;;;;;3.63;1.70;;;20.50;99.90;;;;;;4946026;28;20720;-88
2023/05/19 09:45:54;;;;;;;2.20;1.40;;;20.20;99.90;;;;;;4938028;28;20212;-88
2023/05/19 09:48:20;;;;;;;2.20;1.83;;;19.70;99.90;;;;;;4966236;28;20228;-90
2023/05/19 09:50:48;;;;;;;5.10;2.03;;;18.70;99.90;;;;;;4930903;28;20620;-89
2023/05/19 09:53:14;;;;;;;4.20;2.27;;;18.30;99.90;;;;;;4980611;28;20216;-89
2023/05/19 09:55:41;;;;;;;5.00;2.40;;;18.40;99.90;;;;;;4968712;28;20220;-89
2023/05/19 09:58:08;;;;;;;7.37;2.37;;;18.40;99.90;;;;;;4951802;28;20212;-89
2023/05/19 10:00:34;;;;;;;5.60;1.97;;;17.70;99.90;;;;;;4934914;28;20649;-89
2023/05/19 10:03:04;;;;;;;2.53;1.97;;;18.50;99.90;;;;;;4952571;28;20207;-89
2023/05/19 10:05:31;;;;;;;2.80;2.03;;;19.70;99.90;;;;;;4954938;28;20217;-89
2023/05/19 10:07:57;;;;;;;2.63;1.90;;;20.40;99.90;;;;;;4950297;28;20223;-89
2023/05/19 10:10:27;;;;;;;4.40;2.00;;;19.40;99.90;;;;;;4957033;28;20233;-89
2023/05/19 10:12:53;;;;;;;3.57;1.83;;;19.60;99.90;;;;;;4960544;28;20209;-87
2023/05/19 10:15:19;;;;;;;5.97;2.40;;;20.20;99.90;;;;;;4963717;28;20191;-88
2023/05/19 10:17:45;;;;;;;4.97;2.20;;;20.80;99.90;;;;;;4942043;28;20213;-88
2023/05/19 10:20:15;;;;;;;4.10;2.23;;;19.50;99.90;;;;;;4960278;28;20212;-87
2023/05/19 10:22:42;;;;;;;2.40;2.03;;;19.90;99.90;;;;;;4960145;28;20221;-87
2023/05/19 10:25:09;;;;;;;4.17;2.67;;;19.30;99.90;;;;;;4965688;28;20681;-87
2023/05/19 10:27:42;;;;;;;4.00;2.40;;;18.60;99.90;;;;;;4949711;28;20188;-87
2023/05/19 10:30:16;;;;;;;7.47;3.33;;;18.90;99.90;;;;;;4970049;28;20236;-86
2023/05/19 10:32:44;;;;;;;5.83;2.67;;;19.60;99.90;;;;;;4971043;28;20208;-87
2023/05/19 10:35:09;;;;;;;3.67;2.53;;;20.20;99.90;;;;;;4973427;28;20216;-88
2023/05/19 10:37:56;;;;;;;2.87;1.90;;;19.80;99.90;;;;;;4977715;28;20224;-87
2023/05/19 10:40:32;;;;;;;3.37;2.20;;;19.40;99.90;;;;;;4981114;28;20208;-87
2023/05/19 10:43:07;;;;;;;2.23;1.90;;;19.80;99.90;;;;;;4950366;28;20298;-86
2023/05/19 10:45:40;;;;;;;6.60;2.33;;;19.40;99.90;;;;;;4988785;28;20195;-88
2023/05/19 10:48:12;;;;;;;4.53;2.50;;;19.00;99.90;;;;;;4971175;28;20180;-90
2023/05/19 10:50:38;;;;;;;4.70;1.67;;;19.30;99.90;;;;;;4981585;28;20228;-89
2023/05/19 10:53:12;;;;;;;2.70;1.70;;;18.90;99.90;;;;;;4969835;28;20223;-90
2023/05/19 10:55:54;;;;;;;5.63;3.03;;;17.90;99.90;;;;;;4966067;28;20278;-89
2023/05/19 10:58:48;;;;;;;5.93;2.13;;;18.00;99.90;;;;;;4965036;28;20310;-89
2023/05/19 11:01:16;;;;;;;5.47;3.17;;;18.00;99.90;;;;;;4981774;28;20575;-89
2023/05/19 11:03:46;;;;;;;5.13;2.07;;;17.70;99.90;;;;;;4969036;28;20195;-89
2023/05/19 11:06:29;;;;;;;2.13;1.97;;;17.40;99.90;;;;;;4985409;28;20349;-88
2023/05/19 11:08:57;;;;;;;9.93;2.67;;;17.50;99.90;;;;;;4980816;28;20216;-88
2023/05/19 11:11:23;;;;;;;6.73;2.60;;;18.00;99.90;;;;;;4981066;28;20247;-90
2023/05/19 11:13:53;;;;;;;4.30;2.40;;;18.70;99.90;;;;;;4962078;28;20290;-88
2023/05/19 11:16:33;;;;;;;4.00;2.37;;;19.10;99.90;;;;;;4960835;28;20585;-88
2023/05/19 11:18:59;;;;;;;3.47;2.30;;;19.10;99.90;;;;;;4962044;28;20329;-89
2023/05/19 11:21:41;;;;;;;4.03;2.03;;;19.00;99.90;;;;;;4943418;28;20184;-88
2023/05/19 11:24:08;;;;;;;4.73;2.80;;;18.70;99.90;;;;;;4982850;28;20681;-87
2023/05/19 11:26:43;;;;;;;3.17;2.00;;;17.70;99.90;;;;;;4970444;28;20294;-89
2023/05/19 11:29:10;;;;;;;3.30;2.00;;;17.50;99.90;;;;;;4940948;28;20212;-87
2023/05/19 11:31:37;;;;;;;4.00;2.50;;;18.10;99.90;;;;;;4937148;28;20337;-88
2023/05/19 11:34:07;;;;;;;6.00;3.37;;;17.70;99.90;;;;;;4965410;28;20706;-88
2023/05/19 11:36:35;;;;;;;4.37;2.07;;;17.70;99.90;;;;;;4970093;28;20204;-88
2023/05/19 11:39:02;;;;;;;4.00;2.27;;;17.50;99.90;;;;;;4965035;28;20196;-88
2023/05/19 11:41:29;;;;;;;6.00;1.87;;;16.70;99.90;;;;;;4948618;28;20220;-88
2023/05/19 11:43:55;;;;;;;4.43;1.43;;;16.70;99.90;;;;;;4937812;28;20251;-88
2023/05/19 11:46:21;;;;;;;4.77;1.70;;;16.60;99.90;;;;;;4946828;28;20216;-88
2023/05/19 11:48:47;;;;;;;2.10;1.90;;;16.60;99.90;;;;;;4970360;28;20219;-87
2023/05/19 11:51:13;;;;;;;3.10;1.77;;;16.80;99.90;;;;;;4927885;28;20275;-88
2023/05/19 11:53:39;;;;;;;4.33;2.03;;;17.30;99.90;;;;;;4940154;28;20213;-87
2023/05/19 11:56:07;;;;;;;3.33;1.90;;;16.40;99.90;;;;;;4944405;28;20303;-88
2023/05/19 11:58:33;;;;;;;2.40;1.50;;;15.80;99.90;;;;;;4947434;28;20240;-86
2023/05/19 12:01:02;;;;;;;1.80;1.50;;;16.30;99.90;;;;;;4943951;28;20220;-87
2023/05/19 12:03:31;;;;;;;11.63;1.63;;;16.30;99.90;;;;;;4948082;28;20192;-88
2023/05/19 12:05:57;;;;;;;2.70;1.57;;;16.70;99.90;;;;;;4946706;28;20302;-87
2023/05/19 12:08:24;;;;;;;6.10;1.53;;;16.90;99.90;;;;;;4941425;28;20289;-86
2023/05/19 12:10:51;;;;;;;8.67;2.17;;;17.10;99.90;;;;;;4974045;28;20228;-86
2023/05/19 12:13:18;;;;;;;1.80;1.70;;;17.00;99.90;;;;;;4984637;28;20668;-91
2023/05/19 12:15:44;;;;;;;0.90;0.90;;;17.00;99.90;;;;;;4936647;28;20665;-90
2023/05/19 12:18:10;;;;;;;3.50;1.80;;;16.90;99.90;;;;;;4957927;28;20184;-92
2023/05/19 12:20:36;;;;;;;3.13;1.40;;;16.40;99.90;;;;;;4931682;28;20227;-93
2023/05/19 12:23:02;;;;;;;2.23;1.57;;;16.70;99.90;;;;;;4948375;28;20227;-93
2023/05/19 12:25:29;;;;;;;3.37;2.00;;;17.10;99.90;;;;;;4966281;28;20216;-93
2023/05/19 12:28:01;;;;;;;1.47;1.13;;;17.40;99.90;;;;;;4961256;28;20212;-91
2023/05/19 12:30:28;;;;;;;3.03;1.90;;;17.70;99.90;;;;;;4965835;28;20208;-91
2023/05/19 12:32:57;;;;;;;2.47;1.20;;;17.40;99.90;;;;;;4948311;28;20302;-90
2023/05/19 12:35:29;;;;;;;1.80;1.60;;;17.20;99.90;;;;;;4984760;28;20723;-92
2023/05/19 12:37:55;;;;;;;2.43;1.90;;;17.20;99.90;;;;;;4980952;28;20223;-90
2023/05/19 12:40:21;;;;;;;4.10;1.70;;;17.00;99.90;;;;;;4987171;28;20216;-90
2023/05/19 12:42:50;;;;;;;4.33;1.70;;;16.80;99.90;;;;;;4935332;28;20664;-90
2023/05/19 12:45:20;;;;;;;1.83;1.70;;;17.20;99.90;;;;;;4973482;28;20235;-91
2023/05/19 12:47:50;;;;;;;1.50;1.37;;;17.30;99.90;;;;;;4968911;28;20220;-89
2023/05/19 12:50:15;;;;;;;2.73;1.33;;;17.50;99.90;;;;;;4975517;28;20232;-89
2023/05/19 12:52:44;;;;;;;6.73;1.80;;;17.50;99.90;;;;;;4936555;28;20228;-89
2023/05/19 12:55:11;;;;;;;4.27;2.17;;;17.40;99.90;;;;;;4991467;28;20208;-89
2023/05/19 12:57:38;;;;;;;3.10;1.97;;;17.20;99.90;;;;;;4976368;28;20583;-89
2023/05/19 13:00:08;;;;;;;5.33;1.70;;;17.30;99.90;;;;;;4964961;28;20275;-91
2023/05/19 13:02:52;;;;;;;3.90;1.90;;;17.40;99.90;;;;;;4986983;28;20204;-90
2023/05/19 13:05:18;;;;;;;3.03;1.90;;;17.30;99.90;;;;;;4988631;28;20231;-91
2023/05/19 13:07:53;;;;;;;5.77;2.67;;;16.70;99.90;;;;;;4941891;28;20224;-90
2023/05/19 13:10:19;;;;;;;7.00;1.70;;;17.00;99.90;;;;;;4950815;28;20283;-91
2023/05/19 13:12:45;;;;;;;2.00;1.87;;;16.90;99.90;;;;;;4951732;28;20193;-92
2023/05/19 13:15:11;;;;;;;5.40;2.43;;;16.80;99.90;;;;;;4934473;28;20185;-93
2023/05/19 13:17:39;;;;;;;2.77;2.57;;;16.70;99.90;;;;;;4957427;28;20680;-93
2023/05/19 13:20:06;;;;;;;2.43;1.80;;;16.90;99.90;;;;;;4953295;28;20293;-92
2023/05/19 13:22:31;;;;;;;4.97;2.97;;;17.20;99.90;;;;;;4951701;28;20224;-91
2023/05/19 13:24:58;;;;;;;3.20;2.10;;;17.10;99.90;;;;;;4938858;28;20224;-92
2023/05/19 13:27:25;;;;;;;5.67;2.63;;;17.30;99.90;;;;;;4958289;28;20173;-92
2023/05/19 13:29:51;;;;;;;2.70;2.17;;;17.50;99.90;;;;;;4958347;28;20308;-91
2023/05/19 13:32:17;;;;;;;9.13;2.70;;;17.50;99.90;;;;;;4954878;28;20212;-93
2023/05/19 13:34:45;;;;;;;4.93;2.97;;;17.60;99.90;;;;;;4952024;28;20751;-93